Time;durP1;ratioP1;P1;durP2;ratioP2;P2;SDS_P1;SDS_P2;PMS_P1;PMS_P2;Temp;Humidity;BMP_temperature;BMP_pressure;BME280_temperature;BME280_humidity;BME280_pressure;Samples;Min_cycle;Max_cycle;Signal;HPM_P1;HPM_P2
2022/12/19 00:01:21;;;;;;;19.33;10.77;;;4.90;99.90;;;;;;5097073;28;20181;-76
2022/12/19 00:03:57;;;;;;;18.17;10.40;;;5.00;99.90;;;;;;5115249;28;20174;-73
2022/12/19 00:06:24;;;;;;;20.87;10.53;;;5.10;99.90;;;;;;5115301;28;20169;-73
2022/12/19 00:08:52;;;;;;;18.80;10.70;;;5.00;99.90;;;;;;5115111;28;20201;-74
2022/12/19 00:11:19;;;;;;;18.13;10.27;;;4.90;99.90;;;;;;5114921;28;20197;-74
2022/12/19 00:13:45;;;;;;;19.90;10.27;;;4.90;99.90;;;;;;5115063;28;20202;-74
2022/12/19 00:16:13;;;;;;;19.30;9.80;;;5.00;99.90;;;;;;5115084;28;20545;-74
2022/12/19 00:18:43;;;;;;;20.77;10.63;;;5.00;99.90;;;;;;5114949;28;20201;-75
2022/12/19 00:21:11;;;;;;;20.80;10.57;;;5.00;99.90;;;;;;5114971;28;20207;-75
2022/12/19 00:23:37;;;;;;;17.30;9.30;;;5.10;99.90;;;;;;5114836;28;20162;-74
2022/12/19 00:26:13;;;;;;;18.97;9.47;;;5.10;99.90;;;;;;5114676;28;20191;-75
2022/12/19 00:28:39;;;;;;;18.30;10.30;;;5.10;99.90;;;;;;5114759;28;20250;-75
2022/12/19 00:31:06;;;;;;;21.20;11.20;;;5.00;99.90;;;;;;5096363;28;20210;-75
2022/12/19 00:33:35;;;;;;;20.53;11.07;;;5.10;99.90;;;;;;5114838;28;20608;-75
2022/12/19 00:36:03;;;;;;;20.90;10.57;;;5.10;99.90;;;;;;5114660;28;20158;-75
2022/12/19 00:38:29;;;;;;;21.17;11.03;;;5.20;99.90;;;;;;5096424;28;20171;-75
2022/12/19 00:41:12;;;;;;;17.57;11.03;;;5.20;99.90;;;;;;5095881;28;20640;-75
2022/12/19 00:43:41;;;;;;;20.67;10.93;;;5.30;99.90;;;;;;5114627;28;20163;-75
2022/12/19 00:46:09;;;;;;;19.33;10.53;;;5.50;99.90;;;;;;5096072;28;20173;-75
2022/12/19 00:48:35;;;;;;;18.90;10.00;;;5.50;99.90;;;;;;5114529;28;20227;-75
2022/12/19 00:51:04;;;;;;;21.63;11.10;;;5.40;99.90;;;;;;5114468;28;20197;-75
2022/12/19 00:53:30;;;;;;;21.47;11.80;;;5.40;99.90;;;;;;5114261;28;20206;-75
2022/12/19 00:55:55;;;;;;;20.43;10.13;;;5.40;99.90;;;;;;5114073;28;20166;-75
2022/12/19 00:58:22;;;;;;;17.03;10.10;;;5.40;99.90;;;;;;5096064;28;20246;-73
2022/12/19 01:00:48;;;;;;;19.07;10.33;;;5.40;99.90;;;;;;5114184;28;20228;-73
2022/12/19 01:03:14;;;;;;;15.67;10.03;;;5.40;99.90;;;;;;5114057;28;20170;-74
2022/12/19 01:05:43;;;;;;;18.43;11.37;;;5.40;99.90;;;;;;5114029;28;20273;-74
2022/12/19 01:08:10;;;;;;;22.30;10.93;;;5.50;99.90;;;;;;5114164;28;20514;-75
2022/12/19 01:10:36;;;;;;;22.77;11.43;;;5.60;99.90;;;;;;5094510;28;20217;-73
2022/12/19 01:13:01;;;;;;;19.47;10.27;;;5.80;99.90;;;;;;5113976;28;20162;-73
2022/12/19 01:15:27;;;;;;;16.30;10.33;;;5.80;99.90;;;;;;5113699;28;20174;-74
2022/12/19 01:17:53;;;;;;;19.47;10.97;;;5.80;99.90;;;;;;5113943;28;20207;-73
2022/12/19 01:20:20;;;;;;;19.30;10.53;;;5.90;99.90;;;;;;5113564;28;20186;-73
2022/12/19 01:22:47;;;;;;;21.47;13.70;;;6.00;99.90;;;;;;5113498;28;20158;-74
2022/12/19 01:25:13;;;;;;;19.50;11.03;;;5.90;99.90;;;;;;5113683;28;20611;-74
2022/12/19 01:27:41;;;;;;;17.03;9.77;;;5.90;99.90;;;;;;5113632;28;20166;-74
2022/12/19 01:30:07;;;;;;;16.87;10.90;;;6.10;99.90;;;;;;5113511;28;20215;-74
2022/12/19 01:32:35;;;;;;;16.80;10.37;;;6.20;99.90;;;;;;5113609;28;20167;-74
2022/12/19 01:35:01;;;;;;;17.00;11.27;;;6.20;99.90;;;;;;5113599;28;20187;-74
2022/12/19 01:37:26;;;;;;;14.77;8.70;;;6.10;99.90;;;;;;5113215;28;20167;-74
2022/12/19 01:39:52;;;;;;;14.67;9.10;;;6.10;99.90;;;;;;5113563;28;20204;-75
2022/12/19 01:42:21;;;;;;;15.63;9.30;;;6.20;99.90;;;;;;5113115;28;20250;-75
2022/12/19 01:45:08;;;;;;;17.30;10.10;;;6.20;99.90;;;;;;5095318;28;20269;-74
2022/12/19 01:47:45;;;;;;;14.27;9.57;;;6.20;99.90;;;;;;5113363;28;20234;-74
2022/12/19 01:50:17;;;;;;;12.57;8.13;;;6.30;99.90;;;;;;5113268;28;20684;-74
2022/12/19 01:52:42;;;;;;;15.67;8.07;;;6.30;99.90;;;;;;5113452;28;20167;-74
2022/12/19 01:55:09;;;;;;;14.13;8.63;;;6.40;99.90;;;;;;5094877;28;20228;-74
2022/12/19 01:57:36;;;;;;;14.50;8.63;;;6.30;99.90;;;;;;5113206;28;20163;-74
2022/12/19 02:00:03;;;;;;;14.03;7.87;;;6.30;99.90;;;;;;5113274;28;20187;-74
2022/12/19 02:02:34;;;;;;;13.40;8.40;;;6.40;99.90;;;;;;5113091;28;20160;-74
2022/12/19 02:05:00;;;;;;;15.77;11.70;;;6.40;99.90;;;;;;5113131;28;20216;-74
2022/12/19 02:07:27;;;;;;;12.87;8.47;;;6.40;99.90;;;;;;5112743;28;20164;-73
2022/12/19 02:09:55;;;;;;;12.73;7.50;;;6.50;99.90;;;;;;5112977;28;20285;-73
2022/12/19 02:12:23;;;;;;;12.10;7.57;;;6.60;99.90;;;;;;5112792;28;20161;-74
2022/12/19 02:14:50;;;;;;;11.67;7.80;;;6.60;99.90;;;;;;5112941;28;20515;-74
2022/12/19 02:17:23;;;;;;;12.77;6.90;;;6.70;99.90;;;;;;5094544;28;20167;-74
2022/12/19 02:20:16;;;;;;;11.33;7.17;;;6.70;99.90;;;;;;5112769;28;20279;-73
2022/12/19 02:23:03;;;;;;;11.20;7.03;;;6.80;99.90;;;;;;5112279;28;20175;-73
2022/12/19 02:25:43;;;;;;;10.63;6.97;;;6.90;99.90;;;;;;5112855;28;20162;-73
2022/12/19 02:28:22;;;;;;;11.30;7.07;;;6.90;99.90;;;;;;5112673;28;20608;-73
2022/12/19 02:31:00;;;;;;;10.53;6.50;;;6.90;99.90;;;;;;5112799;28;20213;-74
2022/12/19 02:33:55;;;;;;;11.93;8.07;;;6.90;99.90;;;;;;5112600;28;20171;-74
2022/12/19 02:36:37;;;;;;;9.70;6.83;;;7.00;99.90;;;;;;5071969;28;20184;-73
2022/12/19 02:39:12;;;;;;;9.67;6.83;;;7.00;99.90;;;;;;5094626;28;20199;-73
2022/12/19 02:42:03;;;;;;;12.47;7.67;;;6.90;99.90;;;;;;5094263;28;20223;-72
2022/12/19 02:44:30;;;;;;;13.10;7.77;;;7.00;99.90;;;;;;5112808;28;20167;-71
2022/12/19 02:46:59;;;;;;;12.20;8.37;;;7.00;99.90;;;;;;5112678;28;20167;-72
2022/12/19 02:49:28;;;;;;;12.93;8.13;;;6.90;99.90;;;;;;5094451;28;20782;-74
2022/12/19 02:51:55;;;;;;;11.03;7.13;;;6.90;99.90;;;;;;5112494;28;20172;-72
2022/12/19 02:54:21;;;;;;;16.43;9.83;;;6.90;99.90;;;;;;5112606;28;20174;-72
2022/12/19 02:57:10;;;;;;;15.73;10.03;;;7.00;99.90;;;;;;5112614;28;20526;-72
2022/12/19 03:00:04;;;;;;;11.83;7.90;;;6.90;99.90;;;;;;5086081;28;20183;-72
2022/12/19 03:02:58;;;;;;;11.63;7.47;;;6.90;99.90;;;;;;5082670;28;20180;-72
2022/12/19 03:05:36;;;;;;;13.17;8.30;;;7.00;99.90;;;;;;5112232;28;20164;-72
2022/12/19 03:08:07;;;;;;;11.57;7.83;;;7.00;99.90;;;;;;5112453;28;20173;-72
2022/12/19 03:10:44;;;;;;;13.10;7.60;;;7.00;99.90;;;;;;5094309;28;20205;-72
2022/12/19 03:13:22;;;;;;;11.07;7.67;;;7.00;99.90;;;;;;5112298;28;20253;-73
2022/12/19 03:15:48;;;;;;;12.17;8.53;;;7.00;99.90;;;;;;5112426;28;20167;-73
2022/12/19 03:18:14;;;;;;;10.87;7.37;;;7.10;99.90;;;;;;5112268;28;20156;-73
2022/12/19 03:21:14;;;;;;;12.50;7.70;;;7.00;99.90;;;;;;5112029;28;20189;-73
2022/12/19 03:23:43;;;;;;;10.97;7.13;;;7.00;99.90;;;;;;5112122;28;20224;-73
2022/12/19 03:26:14;;;;;;;13.23;7.93;;;7.00;99.90;;;;;;5112307;28;20642;-73
2022/12/19 03:28:50;;;;;;;12.13;7.53;;;7.10;99.90;;;;;;5112088;28;20632;-73
2022/12/19 03:31:19;;;;;;;11.40;7.37;;;7.10;99.90;;;;;;5112159;28;20215;-73
2022/12/19 03:33:47;;;;;;;14.73;9.33;;;7.10;99.90;;;;;;5113121;28;20187;-73
2022/12/19 03:36:19;;;;;;;9.57;6.73;;;7.20;99.90;;;;;;5115881;28;20559;-72
2022/12/19 03:38:47;;;;;;;11.73;7.47;;;7.30;99.90;;;;;;5115696;28;20177;-73
2022/12/19 03:41:15;;;;;;;10.57;7.63;;;7.30;99.90;;;;;;5115849;28;20169;-73
2022/12/19 03:43:44;;;;;;;11.63;7.10;;;7.20;99.90;;;;;;5115697;28;20676;-73
2022/12/19 03:46:24;;;;;;;10.23;7.37;;;7.20;99.90;;;;;;5115733;28;20177;-73
2022/12/19 03:48:53;;;;;;;11.90;6.60;;;7.20;99.90;;;;;;5115480;28;20638;-73
2022/12/19 03:51:58;;;;;;;8.53;6.63;;;7.20;99.90;;;;;;5115519;28;20438;-73
2022/12/19 03:54:36;;;;;;;10.37;6.77;;;7.20;99.90;;;;;;5069926;28;20644;-73
2022/12/19 03:57:15;;;;;;;9.43;6.80;;;7.20;99.90;;;;;;5115640;28;20620;-73
2022/12/19 03:59:48;;;;;;;13.23;7.90;;;7.20;99.90;;;;;;5097142;28;20211;-73
2022/12/19 04:02:16;;;;;;;11.23;6.53;;;7.20;99.90;;;;;;5097123;28;20163;-75
2022/12/19 04:04:46;;;;;;;9.90;6.93;;;7.30;99.90;;;;;;5115433;28;20252;-75
2022/12/19 04:07:13;;;;;;;8.50;6.33;;;7.40;99.90;;;;;;5115306;28;20179;-75
2022/12/19 04:09:41;;;;;;;8.80;6.00;;;7.50;99.90;;;;;;5097066;28;20207;-74
2022/12/19 04:12:13;;;;;;;9.93;6.30;;;7.60;99.90;;;;;;5115341;28;20695;-75
2022/12/19 04:14:40;;;;;;;8.90;6.40;;;7.60;99.90;;;;;;5115130;28;20511;-75
2022/12/19 04:17:38;;;;;;;12.07;6.70;;;7.60;99.90;;;;;;5115033;28;20161;-76
2022/12/19 04:20:13;;;;;;;7.23;6.00;;;7.60;99.90;;;;;;5096841;28;20269;-74
2022/12/19 04:22:46;;;;;;;9.90;6.00;;;7.80;99.90;;;;;;5096609;28;20175;-74
2022/12/19 04:25:15;;;;;;;9.77;5.80;;;7.80;99.90;;;;;;5114865;28;20774;-74
2022/12/19 04:27:50;;;;;;;10.43;6.23;;;7.80;99.90;;;;;;5114623;28;20264;-76
2022/12/19 04:30:17;;;;;;;8.13;6.37;;;7.70;99.90;;;;;;5114663;28;20608;-74
2022/12/19 04:32:44;;;;;;;9.57;5.83;;;7.90;99.90;;;;;;5114589;28;20173;-74
2022/12/19 04:35:11;;;;;;;7.60;5.50;;;7.80;99.90;;;;;;5114705;28;20587;-74
2022/12/19 04:37:37;;;;;;;8.33;5.30;;;7.90;99.90;;;;;;5114960;28;20168;-74
2022/12/19 04:40:04;;;;;;;8.37;5.40;;;7.90;99.90;;;;;;5114695;28;20682;-75
2022/12/19 04:42:29;;;;;;;7.97;5.90;;;7.80;99.90;;;;;;5114559;28;20279;-75
2022/12/19 04:44:57;;;;;;;9.27;6.07;;;7.80;99.90;;;;;;5114245;28;20179;-75
2022/12/19 04:47:23;;;;;;;7.87;5.13;;;7.80;99.90;;;;;;5114241;28;20525;-75
2022/12/19 04:49:48;;;;;;;9.50;5.40;;;7.90;99.90;;;;;;5095919;28;20197;-76
2022/12/19 04:52:14;;;;;;;8.03;5.33;;;7.90;99.90;;;;;;5114685;28;20165;-75
2022/12/19 04:54:39;;;;;;;7.93;5.30;;;8.00;99.90;;;;;;5114307;28;20626;-75
2022/12/19 04:57:05;;;;;;;7.73;5.60;;;8.10;99.90;;;;;;5096061;28;20174;-75
2022/12/19 04:59:30;;;;;;;7.57;5.00;;;8.10;99.90;;;;;;5113953;28;20161;-75
2022/12/19 05:01:56;;;;;;;7.50;5.70;;;8.00;99.90;;;;;;5113906;28;20166;-75
2022/12/19 05:04:22;;;;;;;10.00;5.70;;;8.00;99.90;;;;;;5114209;28;20247;-75
2022/12/19 05:06:50;;;;;;;7.73;5.33;;;8.00;99.90;;;;;;5114154;28;20171;-75
2022/12/19 05:09:16;;;;;;;7.70;5.50;;;8.00;99.90;;;;;;5114034;28;20163;-74
2022/12/19 05:11:41;;;;;;;8.73;4.77;;;8.00;99.90;;;;;;5113731;28;20724;-76
2022/12/19 05:14:08;;;;;;;7.57;4.97;;;7.90;99.90;;;;;;5114029;28;20167;-75
2022/12/19 05:16:33;;;;;;;8.03;5.83;;;8.00;99.90;;;;;;5113664;28;20172;-75
2022/12/19 05:18:59;;;;;;;6.47;4.97;;;8.10;99.90;;;;;;5113990;28;20160;-74
2022/12/19 05:21:25;;;;;;;7.77;5.23;;;8.20;99.90;;;;;;5114184;28;20207;-75
2022/12/19 05:23:51;;;;;;;8.83;5.43;;;8.20;99.90;;;;;;5113769;28;20587;-75
2022/12/19 05:26:17;;;;;;;7.80;4.57;;;8.20;99.90;;;;;;5113792;28;20169;-75
2022/12/19 05:28:44;;;;;;;6.57;4.83;;;8.20;99.90;;;;;;5113861;28;20170;-75
2022/12/19 05:31:15;;;;;;;6.17;4.43;;;8.20;99.90;;;;;;5113443;28;20198;-75
2022/12/19 05:33:41;;;;;;;6.80;5.17;;;8.20;99.90;;;;;;5095558;28;20627;-75
2022/12/19 05:36:08;;;;;;;6.67;5.13;;;8.20;99.90;;;;;;5113685;28;20692;-75
2022/12/19 05:38:34;;;;;;;7.77;5.00;;;8.20;99.90;;;;;;5113701;28;20159;-75
2022/12/19 05:41:15;;;;;;;8.80;5.10;;;8.30;99.90;;;;;;5095158;28;20640;-75
2022/12/19 05:43:42;;;;;;;6.33;4.80;;;8.20;99.90;;;;;;5113553;28;20615;-75
2022/12/19 05:46:08;;;;;;;7.33;5.23;;;8.30;99.90;;;;;;5113513;28;20178;-75
2022/12/19 05:48:34;;;;;;;7.30;5.60;;;8.50;99.90;;;;;;5113722;28;20163;-75
2022/12/19 05:51:00;;;;;;;6.30;4.57;;;8.50;99.90;;;;;;5094944;28;20669;-75
2022/12/19 05:53:27;;;;;;;6.43;4.93;;;8.30;99.90;;;;;;5095030;28;20173;-75
2022/12/19 05:56:11;;;;;;;7.63;4.57;;;8.20;99.90;;;;;;5112711;28;20169;-75
2022/12/19 05:58:38;;;;;;;6.13;4.47;;;8.30;99.90;;;;;;5113008;28;20175;-76
2022/12/19 06:01:10;;;;;;;8.23;5.10;;;8.40;99.90;;;;;;5113157;28;20172;-75
2022/12/19 06:03:35;;;;;;;4.67;3.77;;;8.50;99.90;;;;;;5094799;28;20171;-75
2022/12/19 06:06:03;;;;;;;5.27;4.13;;;8.50;99.90;;;;;;5112922;28;20230;-75
2022/12/19 06:08:28;;;;;;;6.70;4.50;;;8.40;99.90;;;;;;5113220;28;20698;-75
2022/12/19 06:10:54;;;;;;;6.17;3.97;;;8.40;99.90;;;;;;5113062;28;20277;-75
2022/12/19 06:13:19;;;;;;;5.73;4.17;;;8.40;99.90;;;;;;5112699;28;20634;-75
2022/12/19 06:16:05;;;;;;;8.53;4.77;;;8.40;99.90;;;;;;5112745;28;20165;-75
2022/12/19 06:18:33;;;;;;;6.97;4.03;;;8.40;99.90;;;;;;5113540;28;20161;-74
2022/12/19 06:21:05;;;;;;;7.33;4.77;;;8.50;99.90;;;;;;5113296;28;20233;-74
2022/12/19 06:23:36;;;;;;;7.37;4.77;;;8.50;99.90;;;;;;5095629;28;20260;-74
2022/12/19 06:26:03;;;;;;;6.43;4.20;;;8.50;99.90;;;;;;5113273;28;20151;-74
2022/12/19 06:28:32;;;;;;;6.33;4.40;;;8.50;99.90;;;;;;5111002;28;20559;-75
2022/12/19 06:31:06;;;;;;;5.63;4.17;;;8.40;99.90;;;;;;5114902;28;20239;-74
2022/12/19 06:33:32;;;;;;;6.80;4.33;;;8.50;99.90;;;;;;5133690;28;20246;-74
2022/12/19 06:36:00;;;;;;;6.20;4.30;;;8.50;99.90;;;;;;5115429;28;20169;-75
2022/12/19 06:38:28;;;;;;;8.93;5.17;;;8.50;99.90;;;;;;5133521;28;20558;-74
2022/12/19 06:43:42;;;;;;;7.13;4.67;;;8.50;99.90;;;;;;5133639;28;20290;-75
2022/12/19 06:46:14;;;;;;;6.77;4.10;;;8.70;99.90;;;;;;5133755;28;20151;-74
2022/12/19 06:48:44;;;;;;;6.43;4.00;;;8.60;99.90;;;;;;5115178;28;20197;-74
2022/12/19 06:51:13;;;;;;;7.80;4.30;;;8.50;99.90;;;;;;5133448;28;20244;-74
2022/12/19 06:53:40;;;;;;;6.97;4.20;;;8.50;99.90;;;;;;5133262;28;20227;-74
2022/12/19 06:56:06;;;;;;;5.30;4.17;;;8.50;99.90;;;;;;5133701;28;20156;-74
2022/12/19 06:58:33;;;;;;;7.83;4.17;;;8.60;99.90;;;;;;5114945;28;20198;-77
2022/12/19 07:01:00;;;;;;;6.13;4.27;;;8.50;99.90;;;;;;5133666;28;20163;-74
2022/12/19 07:03:39;;;;;;;5.53;4.40;;;8.60;99.90;;;;;;5133433;28;20197;-74
2022/12/19 07:06:06;;;;;;;9.43;4.30;;;8.60;99.90;;;;;;5115333;28;20386;-73
2022/12/19 07:08:38;;;;;;;5.17;4.13;;;8.80;99.90;;;;;;5134566;27;20160;-73
2022/12/19 07:11:04;;;;;;;5.73;4.20;;;8.80;99.90;;;;;;5137316;27;20199;-73
2022/12/19 07:13:30;;;;;;;5.53;3.77;;;8.80;99.90;;;;;;5137206;27;20198;-73
2022/12/19 07:16:03;;;;;;;5.40;3.90;;;8.80;99.90;;;;;;5137273;27;20202;-76
2022/12/19 07:18:37;;;;;;;6.63;4.23;;;8.70;99.90;;;;;;5137592;27;20159;-73
2022/12/19 07:21:06;;;;;;;7.17;4.13;;;8.90;99.90;;;;;;5137175;27;20189;-70
2022/12/19 07:23:33;;;;;;;6.57;3.70;;;8.90;99.90;;;;;;5137100;27;20628;-70
2022/12/19 07:26:00;;;;;;;7.23;4.43;;;9.10;99.90;;;;;;5136595;27;20168;-70
2022/12/19 07:28:25;;;;;;;7.57;4.57;;;9.00;99.90;;;;;;5117909;27;20708;-71
2022/12/19 07:30:51;;;;;;;5.60;4.20;;;8.80;99.90;;;;;;5136031;27;20195;-70
2022/12/19 07:33:17;;;;;;;7.93;4.33;;;8.70;99.90;;;;;;5135567;27;20532;-71
2022/12/19 07:35:42;;;;;;;5.93;4.37;;;8.70;99.90;;;;;;5135503;27;20520;-71
2022/12/19 07:38:08;;;;;;;6.77;4.50;;;8.70;99.90;;;;;;5135601;27;20716;-71
2022/12/19 07:40:34;;;;;;;5.20;4.03;;;8.80;99.90;;;;;;5135341;27;20603;-71
2022/12/19 07:43:01;;;;;;;7.03;4.73;;;8.80;99.90;;;;;;5117562;27;20171;-71
2022/12/19 07:45:29;;;;;;;6.50;3.80;;;8.80;99.90;;;;;;5136043;27;20251;-71
2022/12/19 07:47:59;;;;;;;6.03;4.13;;;8.80;99.90;;;;;;5134646;27;20175;-70
2022/12/19 07:50:26;;;;;;;6.27;4.03;;;8.80;99.90;;;;;;5134422;27;20985;-70
2022/12/19 07:52:52;;;;;;;6.67;3.90;;;8.80;99.90;;;;;;5133838;27;20451;-71
2022/12/19 07:55:18;;;;;;;6.87;4.00;;;8.80;99.90;;;;;;5133958;27;20602;-70
2022/12/19 07:57:43;;;;;;;5.30;4.03;;;8.70;99.90;;;;;;5134428;27;20168;-70
2022/12/19 08:00:09;;;;;;;5.60;4.07;;;8.80;99.90;;;;;;5115986;27;20395;-70
2022/12/19 08:02:35;;;;;;;6.50;3.70;;;8.90;99.90;;;;;;5135965;27;20171;-70
2022/12/19 08:05:00;;;;;;;4.37;3.07;;;9.10;99.90;;;;;;5135680;27;20171;-71
2022/12/19 08:07:26;;;;;;;6.60;3.60;;;9.00;99.90;;;;;;5135792;27;20204;-74
2022/12/19 08:09:52;;;;;;;6.67;3.80;;;9.00;99.90;;;;;;5135537;27;20200;-75
2022/12/19 08:12:17;;;;;;;6.77;4.07;;;9.00;99.90;;;;;;5117628;27;20180;-73
2022/12/19 08:14:43;;;;;;;4.77;3.43;;;8.90;99.90;;;;;;5117389;27;20192;-73
2022/12/19 08:17:09;;;;;;;6.10;3.57;;;8.90;99.90;;;;;;5117327;27;20195;-73
2022/12/19 08:19:34;;;;;;;7.40;3.67;;;9.00;99.90;;;;;;5135049;27;20605;-75
2022/12/19 08:22:00;;;;;;;4.87;3.30;;;9.00;99.90;;;;;;5135421;27;20170;-73
2022/12/19 08:24:25;;;;;;;5.73;3.77;;;8.90;99.90;;;;;;5116937;27;20652;-73
2022/12/19 08:26:51;;;;;;;5.33;3.27;;;9.00;99.90;;;;;;5135657;27;20233;-73
2022/12/19 08:29:17;;;;;;;4.30;3.50;;;9.00;99.90;;;;;;5135261;27;20169;-73
2022/12/19 08:31:43;;;;;;;8.13;4.23;;;9.00;99.90;;;;;;5135326;27;20204;-74
2022/12/19 08:34:08;;;;;;;4.77;3.83;;;9.10;99.90;;;;;;5116672;27;20158;-74
2022/12/19 08:36:34;;;;;;;8.93;4.93;;;9.00;99.90;;;;;;5117157;27;20204;-74
2022/12/19 08:39:00;;;;;;;10.67;6.10;;;9.00;99.90;;;;;;5135025;27;21064;-73
2022/12/19 08:41:28;;;;;;;4.93;4.10;;;9.00;99.90;;;;;;5116704;27;20551;-74
2022/12/19 08:43:54;;;;;;;6.33;3.83;;;9.10;99.90;;;;;;5135070;27;20227;-74
2022/12/19 08:46:20;;;;;;;5.57;3.97;;;9.10;99.90;;;;;;5116445;27;20176;-73
2022/12/19 08:48:46;;;;;;;5.20;3.50;;;9.00;99.90;;;;;;5116794;27;20217;-74
2022/12/19 08:51:14;;;;;;;5.40;3.53;;;9.00;99.90;;;;;;5134749;27;20210;-73
2022/12/19 08:53:42;;;;;;;5.03;3.47;;;9.00;99.90;;;;;;5134660;27;20330;-74
2022/12/19 08:56:11;;;;;;;4.93;3.17;;;9.10;99.90;;;;;;5135125;27;20162;-73
2022/12/19 08:58:40;;;;;;;8.20;3.27;;;9.20;99.90;;;;;;5134934;27;20661;-75
2022/12/19 09:01:12;;;;;;;4.03;2.87;;;9.30;99.90;;;;;;5116372;27;20216;-74
2022/12/19 09:03:37;;;;;;;7.53;4.00;;;9.30;99.90;;;;;;5134622;27;20232;-74
2022/12/19 09:06:06;;;;;;;4.37;3.47;;;9.30;99.90;;;;;;5116030;27;20172;-74
2022/12/19 09:08:32;;;;;;;5.17;3.20;;;9.30;99.90;;;;;;5134640;27;20169;-73
2022/12/19 09:11:04;;;;;;;4.43;3.23;;;9.30;99.90;;;;;;5134198;27;20203;-76
2022/12/19 09:13:30;;;;;;;5.43;3.40;;;9.30;99.90;;;;;;5134498;27;20170;-74
2022/12/19 09:16:09;;;;;;;5.20;3.17;;;9.30;99.90;;;;;;5134367;27;20242;-73
2022/12/19 09:18:35;;;;;;;5.83;3.63;;;9.30;99.90;;;;;;5134520;27;20184;-75
2022/12/19 09:21:01;;;;;;;4.70;3.03;;;9.40;99.90;;;;;;5134357;27;20177;-74
2022/12/19 09:23:27;;;;;;;3.33;3.00;;;9.50;99.90;;;;;;5134346;27;20168;-74
2022/12/19 09:25:54;;;;;;;3.63;3.30;;;9.50;99.90;;;;;;5134211;27;20165;-74
2022/12/19 09:28:21;;;;;;;5.43;3.37;;;9.40;99.90;;;;;;5134319;27;20172;-74
2022/12/19 09:30:55;;;;;;;3.57;3.10;;;9.30;99.90;;;;;;5133597;27;20204;-74
2022/12/19 09:33:22;;;;;;;5.00;3.63;;;9.30;99.90;;;;;;5134495;27;20233;-74
2022/12/19 09:35:50;;;;;;;7.63;3.90;;;9.30;99.90;;;;;;5134018;27;20232;-74
2022/12/19 09:38:15;;;;;;;8.60;3.83;;;9.20;99.90;;;;;;5134193;27;20712;-74
2022/12/19 09:40:57;;;;;;;4.53;3.47;;;9.30;99.90;;;;;;5133849;27;20248;-76
2022/12/19 09:43:46;;;;;;;5.03;3.43;;;9.30;99.90;;;;;;5133984;27;20256;-76
2022/12/19 09:46:17;;;;;;;5.90;3.27;;;9.30;99.90;;;;;;5133203;27;20188;-74
2022/12/19 09:48:53;;;;;;;5.13;3.40;;;9.30;99.90;;;;;;5134011;27;20163;-74
2022/12/19 09:51:31;;;;;;;5.43;3.87;;;9.40;99.90;;;;;;5133328;27;20245;-74
2022/12/19 09:54:19;;;;;;;5.90;3.53;;;9.40;99.90;;;;;;5133723;27;20506;-74
2022/12/19 09:56:46;;;;;;;4.33;3.10;;;9.40;99.90;;;;;;5115254;27;20169;-74
2022/12/19 09:59:15;;;;;;;4.37;3.10;;;9.30;99.90;;;;;;5133938;27;20158;-74
2022/12/19 10:02:03;;;;;;;6.83;3.40;;;9.50;99.90;;;;;;5133696;27;20252;-75
2022/12/19 10:04:33;;;;;;;5.00;3.40;;;9.40;99.90;;;;;;5133579;27;20202;-75
2022/12/19 10:06:58;;;;;;;7.53;2.93;;;9.40;99.90;;;;;;5133313;27;20176;-75
2022/12/19 10:09:35;;;;;;;7.33;3.30;;;9.30;99.90;;;;;;5115018;27;20629;-74
2022/12/19 10:12:09;;;;;;;4.47;2.93;;;9.40;99.90;;;;;;5133659;27;20210;-77
2022/12/19 10:14:37;;;;;;;4.27;3.33;;;9.40;99.90;;;;;;5133415;27;20179;-74
2022/12/19 10:17:24;;;;;;;5.60;2.93;;;9.40;99.90;;;;;;5133488;27;20198;-75
2022/12/19 10:20:01;;;;;;;3.67;2.77;;;9.40;99.90;;;;;;5133512;27;20183;-74
2022/12/19 10:22:46;;;;;;;5.67;2.80;;;9.50;99.90;;;;;;5133400;28;20199;-76
2022/12/19 10:25:38;;;;;;;4.93;3.33;;;9.60;99.90;;;;;;5133585;28;20170;-74
2022/12/19 10:28:10;;;;;;;4.33;2.63;;;9.70;99.90;;;;;;5115011;28;20193;-76
2022/12/19 10:30:43;;;;;;;5.23;2.53;;;9.70;99.90;;;;;;5133364;28;20226;-74
2022/12/19 10:33:09;;;;;;;5.63;3.20;;;9.70;99.90;;;;;;5133396;28;20531;-76
2022/12/19 10:35:42;;;;;;;5.73;2.53;;;9.80;99.90;;;;;;5133149;28;20162;-76
2022/12/19 10:38:10;;;;;;;6.50;2.90;;;9.90;99.90;;;;;;5114899;28;20622;-74
2022/12/19 10:40:44;;;;;;;3.80;2.57;;;10.00;99.90;;;;;;5133439;28;20277;-75
2022/12/19 10:43:35;;;;;;;6.43;2.80;;;10.10;99.90;;;;;;5117039;27;20642;-75
2022/12/19 10:46:11;;;;;;;3.83;2.23;;;10.20;99.90;;;;;;5118601;27;20630;-75
2022/12/19 10:48:36;;;;;;;4.73;2.43;;;10.30;99.90;;;;;;5118533;27;20175;-74
2022/12/19 10:51:02;;;;;;;4.10;2.60;;;10.30;99.90;;;;;;5137384;27;20193;-73
2022/12/19 10:53:29;;;;;;;3.47;2.20;;;10.30;99.90;;;;;;5137724;27;20173;-74
2022/12/19 10:56:01;;;;;;;2.73;2.03;;;10.60;99.90;;;;;;5137424;27;20177;-75
2022/12/19 10:58:35;;;;;;;3.17;2.10;;;10.40;99.90;;;;;;5137624;27;20153;-74
2022/12/19 11:01:27;;;;;;;4.00;2.17;;;10.50;99.90;;;;;;5137227;27;20173;-74
2022/12/19 11:04:20;;;;;;;5.87;2.20;;;10.50;99.90;;;;;;5136881;27;20368;-74
2022/12/19 11:06:47;;;;;;;3.63;2.43;;;10.70;99.90;;;;;;5119045;27;20175;-74
2022/12/19 11:09:17;;;;;;;3.87;2.10;;;10.80;99.90;;;;;;5118718;27;20327;-75
2022/12/19 11:11:43;;;;;;;5.83;2.73;;;10.90;99.90;;;;;;5137052;27;20276;-75
2022/12/19 11:14:36;;;;;;;7.83;2.10;;;11.00;99.90;;;;;;5136929;27;20172;-73
2022/12/19 11:17:02;;;;;;;2.70;2.13;;;11.00;99.90;;;;;;5134293;27;20177;-75
2022/12/19 11:19:37;;;;;;;4.83;2.70;;;11.00;99.90;;;;;;5118171;27;20189;-73
2022/12/19 11:22:26;;;;;;;4.80;2.30;;;11.10;99.90;;;;;;5137067;27;20192;-75
2022/12/19 11:24:53;;;;;;;3.07;2.37;;;11.20;99.90;;;;;;5136724;27;20207;-73
2022/12/19 11:27:30;;;;;;;2.90;2.33;;;11.40;99.90;;;;;;5136850;27;20184;-73
2022/12/19 11:29:58;;;;;;;6.03;3.03;;;11.40;99.90;;;;;;5118029;27;20354;-73
2022/12/19 11:32:32;;;;;;;11.80;5.00;;;11.60;99.90;;;;;;5136820;27;20149;-73
2022/12/19 11:35:26;;;;;;;6.53;3.37;;;11.40;99.90;;;;;;5136698;27;20563;-73
2022/12/19 11:37:55;;;;;;;6.27;2.30;;;11.60;99.90;;;;;;5136308;27;20208;-73
2022/12/19 11:40:32;;;;;;;4.20;2.60;;;11.50;99.90;;;;;;5136611;27;20203;-73
2022/12/19 11:43:17;;;;;;;3.67;2.53;;;11.60;99.90;;;;;;5136508;27;20194;-72
2022/12/19 11:46:11;;;;;;;3.37;2.30;;;11.80;99.90;;;;;;5136538;27;20167;-72
2022/12/19 11:48:46;;;;;;;3.80;2.00;;;11.90;99.90;;;;;;5136268;27;20594;-73
2022/12/19 11:51:31;;;;;;;2.80;2.50;;;11.60;99.90;;;;;;5136531;27;20253;-74
2022/12/19 11:54:38;;;;;;;3.80;1.90;;;11.50;99.90;;;;;;5135294;27;20253;-73
2022/12/19 11:57:10;;;;;;;4.27;2.33;;;11.30;99.90;;;;;;5136373;27;20253;-72
2022/12/19 11:59:37;;;;;;;4.03;2.30;;;11.40;99.90;;;;;;5117819;27;20795;-74
2022/12/19 12:02:41;;;;;;;3.37;1.83;;;11.50;99.90;;;;;;5136099;27;20230;-73
2022/12/19 12:05:46;;;;;;;4.63;2.83;;;11.40;99.90;;;;;;5117680;27;20582;-74
2022/12/19 12:08:40;;;;;;;5.07;2.20;;;11.50;99.90;;;;;;5052934;28;20567;-74
2022/12/19 12:11:23;;;;;;;3.70;2.20;;;11.60;99.90;;;;;;5136047;27;20201;-73
2022/12/19 12:14:06;;;;;;;4.33;2.70;;;11.60;99.90;;;;;;5135722;27;20206;-73
2022/12/19 12:16:43;;;;;;;2.93;2.10;;;11.70;99.90;;;;;;5135613;27;20614;-74
2022/12/19 12:19:48;;;;;;;6.17;2.30;;;11.60;99.90;;;;;;5135543;27;20168;-73
2022/12/19 12:22:25;;;;;;;3.33;2.10;;;11.80;99.90;;;;;;5117108;27;20197;-73
2022/12/19 12:25:02;;;;;;;3.23;2.10;;;11.70;99.90;;;;;;5135686;27;20161;-73
2022/12/19 12:28:06;;;;;;;4.70;2.27;;;11.60;99.90;;;;;;5135622;27;20157;-73
2022/12/19 12:30:45;;;;;;;3.30;2.10;;;11.70;99.90;;;;;;5092937;27;20281;-73
2022/12/19 12:33:56;;;;;;;5.30;2.60;;;11.80;99.90;;;;;;5135407;27;20177;-74
2022/12/19 12:36:34;;;;;;;4.00;2.30;;;11.70;99.90;;;;;;5114440;27;20554;-73
2022/12/19 12:39:37;;;;;;;5.30;2.27;;;11.70;99.90;;;;;;5135342;27;20162;-73
2022/12/19 12:42:39;;;;;;;5.27;2.50;;;11.90;99.90;;;;;;5132584;27;20646;-74
2022/12/19 12:45:18;;;;;;;5.37;2.77;;;11.90;99.90;;;;;;5134696;27;20169;-74
2022/12/19 12:47:48;;;;;;;3.20;1.83;;;11.80;99.90;;;;;;5135330;27;20149;-74
2022/12/19 12:50:16;;;;;;;3.23;2.13;;;11.60;99.90;;;;;;5134975;27;20234;-70
2022/12/19 12:52:48;;;;;;;3.73;1.90;;;11.70;99.90;;;;;;5135243;27;20160;-70
2022/12/19 12:55:24;;;;;;;3.50;2.10;;;11.70;99.90;;;;;;5135132;27;20188;-68
2022/12/19 12:57:50;;;;;;;2.93;1.50;;;11.70;99.90;;;;;;5135051;27;20172;-70
2022/12/19 13:00:16;;;;;;;2.73;2.10;;;11.80;99.90;;;;;;5134912;27;20169;-73
2022/12/19 13:02:48;;;;;;;3.80;2.30;;;11.70;99.90;;;;;;5134967;27;20204;-72
2022/12/19 13:05:47;;;;;;;2.23;1.83;;;11.60;99.90;;;;;;5134785;27;20162;-72
2022/12/19 13:08:35;;;;;;;3.97;2.23;;;11.60;99.90;;;;;;5134646;27;20157;-72
2022/12/19 13:11:05;;;;;;;3.80;2.13;;;11.60;99.90;;;;;;5134527;27;20242;-72
2022/12/19 13:13:53;;;;;;;3.20;1.77;;;11.50;99.90;;;;;;5134476;27;20193;-72
2022/12/19 13:16:43;;;;;;;3.67;2.10;;;11.60;99.90;;;;;;5134752;27;20706;-72
2022/12/19 13:19:22;;;;;;;3.93;2.03;;;11.70;99.90;;;;;;5134472;27;20163;-72